Anchorage, Alaska
Current Conditions -  °F | °C
As of 11:53 AM on Thursday 27 Nov 2014 (Local Time) from PANC Reporting Station
Broken Clouds Broken Clouds  
Wind Chill: 20°   Ceiling: 20000
Heat Index: 20°   Visibility: 10mi
Dew Point: 17°   Wind: 0mph
Humidity: 89%   Direction: NA
Pressure: 30.21"   Gusts: NA
Location:  61.16°N, 150.01°W
Report Text: PANC 272053Z 00000KT 10SM FEW003 SCT013 BKN200 M07/M08 A3021 RMK AO2 SLP235 LOW CIG NE-SE-S T10671083 51001
Loading
Personal Weather Stations






























Interactive Weather Map New forecast layout! Learn more

10-Day Weather Forecast

Advertisements
Track Severe Weather on mobile